Charlotte Douglas International Airport
KCLT : now visible

Airfield :











YOU CAN JOIN US ON...

 
LOGIN :

Register | Disclaimer

   EN    FR    IT 

 









Legend :    VFR   Marginal VFR   IFR   Intensive IFR   Very Intensive IFR
Visi :
Ceiling :
>= 8 km
>= 3000ft
5 to 8 km
1000 to 3000 ft
1500m to 5 km
500 to 1000 ft
800 to 1500m
200 to 500 ft
< 800m
< 200 ft
Symbols :   Thunderstorms  Fog  Heavy snow  Heavy precipitations  Wind > 20 kt






- Airport Elevation : 748 ft
- IATA code : CLT


KCLT - Charlotte Douglas International

CURRENT METAR :
  • 130352Z 05010KT 10SM OVC022 04/M06 A3044 RMK AO2 RAB0256E05B27E38 SLP312 P0000 T00441056

EXPIRED METARs :
  • 130252Z 05009G18KT 10SM OVC024 05/M06 A3047 RMK AO2 SLP320 T00501056 58007
  • 130152Z 07008KT 10SM OVC027 06/M06 A3049 RMK AO2 SLP327 T00561056

TAF KCLT
Valid from the 13 at 02:00 until the 14 at 06:00 UTC


130154Z 1302/1406 06010KT P6SM VCSH BKN028 OVC060
FM130500 04008KT 6SM -RA OVC020
FM130800 03007KT 3SM -RA BR OVC007
FM131400 03006KT 1 1/2SM -RA BR OVC003
FM140100 02004KT 3SM -RA BR OVC003



MET'MAP, your aeronautical weather chart ! - Copyright ORBIFLY December 2007 - Disclaimer

ORBIFLY MET'MAP TEAM :

Programming & Development : Alexandra Zaïnal
Concept & original design : Baudouin d'Aumeries
Assistance for programming : Marc-Olivier Méhu
Technical & hardware support : Manuel Goepfert

Contact : metmap@orbifly.com




SOURCES & CREDITS :

   NOAA       Earth
Advisory